Time;durP1;ratioP1;P1;durP2;ratioP2;P2;SDS_P1;SDS_P2;PMS_P1;PMS_P2;Temp;Humidity;BMP_temperature;BMP_pressure;BME280_temperature;BME280_humidity;BME280_pressure;Samples;Min_cycle;Max_cycle;Signal;HPM_P1;HPM_P2
2022/08/21 00:00:26;;;;;;;7.97;5.15;;;;;;;14.23;100.00;101543.44;5204435;28;21094;-70
2022/08/21 00:03:01;;;;;;;8.30;5.47;;;;;;;14.21;100.00;101541.84;5200005;28;20038;-69
2022/08/21 00:05:35;;;;;;;10.52;5.50;;;;;;;14.22;100.00;101551.59;5203821;28;20464;-69
2022/08/21 00:08:07;;;;;;;9.20;6.35;;;;;;;14.19;100.00;101541.97;5205239;28;20603;-70
2022/08/21 00:10:39;;;;;;;11.70;6.18;;;;;;;14.22;100.00;101543.56;5205222;28;20365;-69
2022/08/21 00:13:12;;;;;;;7.53;5.57;;;;;;;14.08;100.00;101542.84;5204037;28;20678;-69
2022/08/21 00:15:44;;;;;;;9.93;5.78;;;;;;;14.12;100.00;101533.56;5202090;28;20109;-70
2022/08/21 00:18:17;;;;;;;7.75;6.45;;;;;;;14.14;100.00;101532.59;5206095;28;20082;-69
2022/08/21 00:20:48;;;;;;;9.95;5.75;;;;;;;14.02;100.00;101535.28;5209855;28;20034;-70
2022/08/21 00:23:20;;;;;;;10.30;5.80;;;;;;;14.00;100.00;101531.88;5204293;28;20430;-69
2022/08/21 00:25:52;;;;;;;8.88;5.85;;;;;;;14.01;100.00;101530.88;5206199;28;20026;-69
2022/08/21 00:28:23;;;;;;;7.50;5.75;;;;;;;13.92;100.00;101529.81;5202975;28;20030;-69
2022/08/21 00:30:56;;;;;;;8.30;6.10;;;;;;;13.90;100.00;101528.19;5208958;28;20470;-69
2022/08/21 00:33:27;;;;;;;9.00;6.05;;;;;;;13.84;100.00;101524.16;5208245;28;20030;-69
2022/08/21 00:36:00;;;;;;;11.00;6.40;;;;;;;13.83;100.00;101517.13;5208665;28;20648;-70
2022/08/21 00:38:31;;;;;;;10.25;6.88;;;;;;;13.84;100.00;101515.28;5209422;28;20056;-69
2022/08/21 00:41:05;;;;;;;8.32;5.95;;;;;;;13.87;100.00;101515.88;5208423;28;20029;-68
2022/08/21 00:43:39;;;;;;;9.15;5.72;;;;;;;13.77;100.00;101520.28;5208573;28;20042;-68
2022/08/21 00:46:10;;;;;;;12.00;6.50;;;;;;;13.78;100.00;101516.63;5204965;28;20435;-69
2022/08/21 00:48:41;;;;;;;7.97;6.03;;;;;;;13.78;100.00;101511.25;5214054;28;20109;-69
2022/08/21 00:51:22;;;;;;;9.95;7.03;;;;;;;13.76;100.00;101513.22;5210773;28;20037;-69
2022/08/21 00:53:56;;;;;;;11.45;7.30;;;;;;;13.62;100.00;101516.97;5210911;28;20086;-69
2022/08/21 00:56:28;;;;;;;12.32;6.63;;;;;;;13.72;100.00;101511.75;5208296;28;20030;-69
2022/08/21 00:59:01;;;;;;;9.68;6.97;;;;;;;13.56;100.00;101520.16;5212317;28;20104;-69
2022/08/21 01:01:33;;;;;;;9.70;6.75;;;;;;;13.60;100.00;101523.44;5206373;28;20033;-69
2022/08/21 01:04:04;;;;;;;8.65;7.18;;;;;;;13.66;100.00;101510.41;5201789;28;20418;-69
2022/08/21 01:06:36;;;;;;;10.13;7.38;;;;;;;13.55;100.00;101515.75;5232515;28;20539;-69
2022/08/21 01:09:07;;;;;;;10.15;7.88;;;;;;;13.58;100.00;101515.53;5245887;28;20595;-69
2022/08/21 01:11:40;;;;;;;11.25;7.00;;;;;;;13.57;100.00;101523.69;5234296;28;20776;-69
2022/08/21 01:14:13;;;;;;;9.23;7.53;;;;;;;13.43;100.00;101520.25;5225067;28;20067;-69
2022/08/21 01:16:47;;;;;;;9.75;7.22;;;;;;;13.39;100.00;101523.31;5212889;28;20018;-69
2022/08/21 01:19:21;;;;;;;10.25;6.97;;;;;;;13.36;100.00;101526.22;5211550;28;20395;-69
2022/08/21 01:21:53;;;;;;;9.97;7.60;;;;;;;13.42;100.00;101515.84;5212191;28;20051;-69
2022/08/21 01:24:24;;;;;;;11.70;7.10;;;;;;;13.33;100.00;101516.59;5209871;28;20025;-69
2022/08/21 01:26:56;;;;;;;8.50;7.43;;;;;;;13.34;100.00;101515.59;5208646;28;20037;-69
2022/08/21 01:29:39;;;;;;;10.82;7.40;;;;;;;13.42;100.00;101507.81;5210982;28;20070;-69
2022/08/21 01:32:16;;;;;;;11.10;8.15;;;;;;;13.36;100.00;101510.97;5209478;28;20042;-69
2022/08/21 01:34:49;;;;;;;11.20;7.47;;;;;;;13.34;100.00;101508.41;5215696;28;20030;-69
2022/08/21 01:37:21;;;;;;;9.48;7.43;;;;;;;13.33;100.00;101511.22;5208940;28;20380;-69
2022/08/21 01:39:53;;;;;;;11.05;7.40;;;;;;;13.24;100.00;101511.91;5210082;28;20033;-69
2022/08/21 01:42:24;;;;;;;8.88;7.85;;;;;;;13.24;100.00;101517.25;5212892;28;20088;-69
2022/08/21 01:44:56;;;;;;;11.43;8.15;;;;;;;13.23;100.00;101515.53;5207489;28;20466;-70
2022/08/21 01:47:27;;;;;;;9.35;7.70;;;;;;;13.18;100.00;101513.22;5206874;28;20121;-70
2022/08/21 01:49:59;;;;;;;12.57;8.07;;;;;;;13.18;100.00;101510.53;5207735;28;20106;-69
2022/08/21 01:52:30;;;;;;;11.10;7.90;;;;;;;13.16;100.00;101515.16;5216800;28;20034;-69
2022/08/21 01:55:02;;;;;;;11.55;8.38;;;;;;;13.24;100.00;101503.84;5208788;28;20041;-69
2022/08/21 01:57:33;;;;;;;10.40;8.30;;;;;;;13.17;100.00;101499.94;5209678;28;20156;-70
2022/08/21 02:00:08;;;;;;;13.25;8.90;;;;;;;13.22;100.00;101503.13;5213192;28;20215;-69
2022/08/21 02:02:40;;;;;;;11.27;8.18;;;;;;;13.11;100.00;101494.06;5206486;28;20022;-69
2022/08/21 02:05:12;;;;;;;13.20;8.82;;;;;;;13.10;100.00;101499.56;5217363;28;20051;-70
2022/08/21 02:07:48;;;;;;;12.23;8.75;;;;;;;13.07;100.00;101497.97;5215641;28;20030;-70
2022/08/21 02:10:26;;;;;;;12.40;9.30;;;;;;;13.11;100.00;101495.91;5219841;28;20100;-69
2022/08/21 02:12:59;;;;;;;10.65;8.73;;;;;;;13.11;100.00;101490.53;5207619;28;20046;-69
2022/08/21 02:15:31;;;;;;;14.00;9.20;;;;;;;13.07;100.00;101481.88;5204687;28;20520;-70
2022/08/21 02:18:05;;;;;;;11.02;9.35;;;;;;;13.00;100.00;101485.16;5204855;28;20300;-70
2022/08/21 02:20:40;;;;;;;11.23;8.70;;;;;;;12.92;100.00;101481.25;5212181;28;20026;-69
2022/08/21 02:23:12;;;;;;;13.35;8.43;;;;;;;12.90;100.00;101472.47;5206180;28;20029;-69
2022/08/21 02:25:43;;;;;;;12.43;8.88;;;;;;;12.95;100.00;101481.00;5200754;28;20470;-69
2022/08/21 02:28:15;;;;;;;11.15;8.57;;;;;;;12.94;100.00;101478.44;5212981;28;20159;-69
2022/08/21 02:30:47;;;;;;;14.75;9.18;;;;;;;13.00;100.00;101488.72;5212459;28;20026;-70
2022/08/21 02:33:19;;;;;;;10.18;8.68;;;;;;;12.89;100.00;101494.88;5237777;28;20030;-69
2022/08/21 02:35:51;;;;;;;12.88;9.25;;;;;;;12.86;100.00;101491.56;5224699;28;20075;-69
2022/08/21 02:38:26;;;;;;;10.50;8.50;;;;;;;12.79;100.00;101487.63;5234191;28;20027;-69
2022/08/21 02:40:57;;;;;;;13.02;8.75;;;;;;;12.78;100.00;101483.28;5207059;28;20158;-69
2022/08/21 02:43:29;;;;;;;10.38;9.10;;;;;;;12.81;100.00;101480.34;5210699;28;20078;-69
2022/08/21 02:46:00;;;;;;;10.60;8.27;;;;;;;12.72;100.00;101480.06;5210374;28;20509;-69
2022/08/21 02:48:33;;;;;;;11.73;8.75;;;;;;;12.71;100.00;101480.19;5207454;28;20048;-69
2022/08/21 02:51:11;;;;;;;13.60;9.20;;;;;;;12.66;100.00;101479.69;5212559;28;20034;-69
2022/08/21 02:53:45;;;;;;;13.23;9.90;;;;;;;12.68;100.00;101481.28;5205143;28;20130;-69
2022/08/21 02:56:18;;;;;;;11.48;10.10;;;;;;;12.60;100.00;101481.00;5205709;28;20030;-69
2022/08/21 02:58:51;;;;;;;15.93;11.43;;;;;;;12.68;100.00;101480.44;5204626;28;20029;-69
2022/08/21 03:01:23;;;;;;;14.80;11.60;;;;;;;12.67;100.00;101479.56;5207434;28;20037;-69
2022/08/21 03:03:54;;;;;;;14.77;12.13;;;;;;;12.66;100.00;101479.69;5205520;28;20492;-69
2022/08/21 03:06:25;;;;;;;14.75;12.13;;;;;;;12.54;100.00;101478.78;5206241;28;20137;-69
2022/08/21 03:08:57;;;;;;;16.40;12.82;;;;;;;12.55;100.00;101478.66;5206148;28;20044;-69
2022/08/21 03:11:28;;;;;;;18.88;12.90;;;;;;;12.58;100.00;101472.25;5218037;28;20389;-69
2022/08/21 03:13:59;;;;;;;15.07;12.25;;;;;;;12.52;100.00;101480.72;5218235;28;20026;-69
2022/08/21 03:16:31;;;;;;;16.65;12.65;;;;;;;12.51;100.00;101484.38;5208299;28;20021;-69
2022/08/21 03:19:03;;;;;;;14.57;12.30;;;;;;;12.60;100.00;101478.34;5218449;28;20117;-69
2022/08/21 03:21:34;;;;;;;15.13;12.10;;;;;;;12.51;100.00;101471.00;5209112;28;20033;-69
2022/08/21 03:24:06;;;;;;;15.73;12.43;;;;;;;12.45;100.00;101471.44;5210336;28;20030;-69
2022/08/21 03:26:37;;;;;;;13.90;11.75;;;;;;;12.47;100.00;101470.34;5217439;28;20049;-69
2022/08/21 03:29:09;;;;;;;13.25;11.70;;;;;;;12.48;100.00;101476.56;5206249;28;20395;-69
2022/08/21 03:31:40;;;;;;;13.48;11.93;;;;;;;12.46;100.00;101473.16;5215651;28;20034;-69
2022/08/21 03:34:11;;;;;;;17.30;11.57;;;;;;;12.32;100.00;101472.34;5225739;28;20052;-70
2022/08/21 03:36:43;;;;;;;14.88;11.93;;;;;;;12.30;100.00;101468.09;5217092;28;20034;-69
2022/08/21 03:39:16;;;;;;;15.35;11.70;;;;;;;12.33;100.00;101473.19;5210693;28;20062;-69
2022/08/21 03:41:47;;;;;;;14.65;12.43;;;;;;;12.36;100.00;101470.28;5219410;28;20826;-69
2022/08/21 03:44:18;;;;;;;13.15;11.45;;;;;;;12.24;100.00;101461.34;5212078;28;20065;-69
2022/08/21 03:46:50;;;;;;;16.92;11.68;;;;;;;12.20;100.00;101462.56;5209127;28;20120;-69
2022/08/21 03:49:21;;;;;;;15.25;11.13;;;;;;;12.17;100.00;101473.47;5213723;28;20578;-69
2022/08/21 03:51:53;;;;;;;16.65;12.32;;;;;;;12.24;100.00;101458.69;5230942;28;20483;-69
2022/08/21 03:54:24;;;;;;;15.13;12.13;;;;;;;12.23;100.00;101458.78;5226430;28;20061;-70
2022/08/21 03:56:56;;;;;;;16.35;11.85;;;;;;;12.24;100.00;101460.53;5206989;28;20778;-69
2022/08/21 03:59:27;;;;;;;12.90;11.48;;;;;;;12.17;100.00;101468.13;5227087;28;20419;-68
2022/08/21 04:02:01;;;;;;;15.30;11.32;;;;;;;12.11;100.00;101463.22;5214531;28;20065;-69
2022/08/21 04:04:33;;;;;;;15.27;11.32;;;;;;;12.12;100.00;101465.78;5214081;28;20023;-69
2022/08/21 04:07:04;;;;;;;15.75;10.93;;;;;;;12.08;100.00;101463.44;5214963;28;20022;-69
2022/08/21 04:09:35;;;;;;;14.23;11.20;;;;;;;12.08;100.00;101464.31;5208111;28;20150;-68
2022/08/21 04:12:07;;;;;;;14.48;11.93;;;;;;;12.14;100.00;101463.00;5209854;28;20555;-69
2022/08/21 04:14:38;;;;;;;15.00;12.27;;;;;;;12.22;100.00;101460.63;5214998;28;20491;-69
2022/08/21 04:17:10;;;;;;;16.00;12.00;;;;;;;12.04;100.00;101468.19;5212114;28;20068;-69
2022/08/21 04:19:41;;;;;;;15.77;11.95;;;;;;;12.08;100.00;101474.13;5215877;28;20053;-68
2022/08/21 04:22:12;;;;;;;16.30;11.52;;;;;;;12.00;100.00;101472.03;5204330;28;20483;-69
2022/08/21 04:24:44;;;;;;;14.82;12.30;;;;;;;12.03;100.00;101473.63;5216861;28;20491;-69
2022/08/21 04:27:15;;;;;;;16.65;11.32;;;;;;;11.98;100.00;101475.78;5204107;28;20307;-69
2022/08/21 04:29:47;;;;;;;17.30;11.90;;;;;;;11.98;100.00;101473.94;5212031;28;20441;-69
2022/08/21 04:32:23;;;;;;;17.33;11.18;;;;;;;12.02;100.00;101482.63;5215203;28;20026;-69
2022/08/21 04:35:03;;;;;;;16.60;11.35;;;;;;;11.96;100.00;101481.22;5204805;28;20640;-69
2022/08/21 04:37:36;;;;;;;16.55;11.43;;;;;;;11.93;100.00;101486.81;5218413;28;20065;-69
2022/08/21 04:40:10;;;;;;;16.52;11.07;;;;;;;11.92;100.00;101485.94;5203930;28;20042;-69
2022/08/21 04:42:51;;;;;;;16.13;11.68;;;;;;;12.00;100.00;101481.88;5205924;28;20038;-71
2022/08/21 04:45:35;;;;;;;15.73;11.18;;;;;;;11.95;100.00;101487.56;5208061;28;20092;-69
2022/08/21 04:48:08;;;;;;;12.00;10.63;;;;;;;11.93;100.00;101490.34;5203808;28;20068;-69
2022/08/21 04:50:40;;;;;;;13.65;11.02;;;;;;;11.95;100.00;101488.41;5206470;28;20543;-69
2022/08/21 04:53:16;;;;;;;14.18;10.73;;;;;;;11.93;100.00;101485.00;5201189;28;20041;-69
2022/08/21 04:55:48;;;;;;;16.73;10.70;;;;;;;11.99;100.00;101496.22;5201718;28;20030;-69
2022/08/21 04:58:24;;;;;;;14.18;10.60;;;;;;;11.92;100.00;101485.94;5203881;28;20053;-69
2022/08/21 05:00:59;;;;;;;14.35;11.23;;;;;;;12.00;100.00;101487.22;5205429;28;20109;-69
2022/08/21 05:03:33;;;;;;;13.13;10.13;;;;;;;11.96;100.00;101484.75;5209883;28;20453;-69
2022/08/21 05:06:12;;;;;;;12.38;10.15;;;;;;;11.96;100.00;101491.94;5204560;28;20057;-69
2022/08/21 05:08:46;;;;;;;14.90;11.32;;;;;;;11.96;100.00;101498.13;5204341;28;20503;-68
2022/08/21 05:11:18;;;;;;;;;;;;;;;12.02;100.00;101496.84;5202402;28;20038;-69
2022/08/21 05:13:50;;;;;;;14.70;10.27;;;;;;;11.98;100.00;101495.34;5200455;28;19925;-68
2022/08/21 05:16:21;;;;;;;14.93;10.10;;;;;;;11.98;100.00;101499.84;5205141;28;20044;-69
2022/08/21 05:18:52;;;;;;;15.15;9.88;;;;;;;11.99;100.00;101504.25;5207632;28;20858;-69
2022/08/21 05:21:24;;;;;;;13.68;9.52;;;;;;;11.99;100.00;101507.78;5208331;28;20026;-69
2022/08/21 05:23:55;;;;;;;13.82;10.10;;;;;;;12.02;100.00;101506.69;5206001;28;20639;-68
2022/08/21 05:26:26;;;;;;;13.68;9.95;;;;;;;12.07;100.00;101513.41;5205993;28;20087;-69
2022/08/21 05:28:58;;;;;;;14.95;9.68;;;;;;;12.10;100.00;101515.00;5207885;28;20387;-69
2022/08/21 05:31:29;;;;;;;14.05;9.38;;;;;;;12.15;100.00;101511.03;5206665;28;20126;-69
2022/08/21 05:34:00;;;;;;;13.02;9.52;;;;;;;12.16;100.00;101509.22;5204879;28;20026;-69
2022/08/21 05:36:32;;;;;;;14.48;9.65;;;;;;;12.16;100.00;101509.22;5206551;28;20045;-69
2022/08/21 05:39:03;;;;;;;17.60;9.90;;;;;;;12.19;100.00;101514.34;5208888;28;20048;-68
2022/08/21 05:41:34;;;;;;;13.00;8.65;;;;;;;12.21;100.00;101509.72;5206669;28;20436;-68
2022/08/21 05:44:06;;;;;;;13.63;10.05;;;;;;;12.27;100.00;101521.81;5205721;28;20069;-69
2022/08/21 05:46:38;;;;;;;17.25;9.55;;;;;;;12.34;100.00;101513.22;5208059;28;20036;-69
2022/08/21 05:49:11;;;;;;;12.02;9.00;;;;;;;12.31;100.00;101517.94;5207552;28;20479;-69
2022/08/21 05:51:42;;;;;;;14.30;9.00;;;;;;;12.34;100.00;101510.53;5210187;28;20025;-69
2022/08/21 05:54:13;;;;;;;16.50;9.20;;;;;;;12.39;100.00;101514.69;5205825;28;20048;-69
2022/08/21 05:56:44;;;;;;;12.60;8.80;;;;;;;12.54;100.00;101514.44;5202426;28;20032;-69
2022/08/21 05:59:16;;;;;;;12.30;8.15;;;;;;;12.55;100.00;101512.63;5205123;28;20033;-69
2022/08/21 06:01:47;;;;;;;13.48;8.82;;;;;;;12.51;100.00;101513.81;5204014;28;20033;-69
2022/08/21 06:04:19;;;;;;;15.00;8.18;;;;;;;12.60;100.00;101512.25;5205665;28;20034;-69
2022/08/21 06:06:50;;;;;;;16.65;9.07;;;;;;;12.63;100.00;101507.53;5206178;28;20843;-69
2022/08/21 06:09:21;;;;;;;13.60;8.13;;;;;;;12.68;100.00;101513.41;5205227;28;20026;-69
2022/08/21 06:11:53;;;;;;;11.88;7.78;;;;;;;12.69;100.00;101520.47;5205449;28;20037;-69
2022/08/21 06:14:24;;;;;;;13.52;9.32;;;;;;;12.77;100.00;101519.91;5206109;28;20029;-69
2022/08/21 06:17:04;;;;;;;10.52;7.95;;;;;;;12.85;100.00;101522.03;5205362;28;20034;-69
2022/08/21 06:19:36;;;;;;;11.98;7.95;;;;;;;12.89;100.00;101523.50;5204640;28;20237;-69
2022/08/21 06:22:08;;;;;;;18.85;8.27;;;;;;;13.00;100.00;101525.34;5210658;28;20053;-69
2022/08/21 06:24:39;;;;;;;13.35;8.68;;;;;;;13.09;100.00;101520.13;5205074;28;20030;-69
2022/08/21 06:27:11;;;;;;;13.43;8.95;;;;;;;13.11;100.00;101520.88;5206661;28;20037;-69
2022/08/21 06:29:42;;;;;;;14.40;8.60;;;;;;;13.16;100.00;101515.16;5201961;28;20069;-68
2022/08/21 06:32:14;;;;;;;17.23;8.55;;;;;;;13.24;100.00;101515.44;5206759;28;20038;-69
2022/08/21 06:34:46;;;;;;;13.00;8.60;;;;;;;13.26;100.00;101524.19;5206130;28;20518;-68
2022/08/21 06:37:17;;;;;;;14.75;8.20;;;;;;;13.35;100.00;101525.34;5206651;28;20030;-69
2022/08/21 06:39:48;;;;;;;17.17;8.45;;;;;;;13.45;100.00;101518.31;5206840;28;20183;-69
2022/08/21 06:42:19;;;;;;;15.93;7.88;;;;;;;13.49;100.00;101525.13;5205100;28;20034;-69
2022/08/21 06:44:51;;;;;;;14.98;7.90;;;;;;;13.53;100.00;101523.91;5202726;28;20625;-69
2022/08/21 06:47:22;;;;;;;12.20;7.40;;;;;;;13.61;100.00;101527.81;5203680;28;20063;-68
2022/08/21 06:49:54;;;;;;;15.48;7.40;;;;;;;13.72;100.00;101528.69;5205688;28;20554;-68
2022/08/21 06:52:25;;;;;;;16.05;7.18;;;;;;;13.82;100.00;101522.59;5190420;28;20549;-69
2022/08/21 06:54:56;;;;;;;14.50;8.00;;;;;;;13.87;100.00;101523.09;5202390;28;20038;-69
2022/08/21 06:57:27;;;;;;;11.95;7.45;;;;;;;14.01;100.00;101527.34;5207587;28;20113;-69
2022/08/21 06:59:59;;;;;;;17.10;7.95;;;;;;;14.06;100.00;101530.53;5204019;28;20025;-69
2022/08/21 07:02:30;;;;;;;14.23;7.20;;;;;;;14.16;100.00;101520.75;5203729;28;20038;-70
2022/08/21 07:05:01;;;;;;;17.85;6.97;;;;;;;14.28;100.00;101519.75;5204193;28;20116;-69
2022/08/21 07:07:33;;;;;;;15.73;8.15;;;;;;;14.42;100.00;101515.94;5205560;28;20029;-69
2022/08/21 07:10:04;;;;;;;14.82;7.53;;;;;;;14.62;100.00;101517.00;5205116;28;20406;-69
2022/08/21 07:12:36;;;;;;;15.35;7.68;;;;;;;14.73;100.00;101513.44;5205241;28;20484;-69
2022/08/21 07:15:08;;;;;;;15.38;7.13;;;;;;;14.98;100.00;101519.44;5204023;28;20030;-69
2022/08/21 07:17:39;;;;;;;11.73;7.00;;;;;;;15.17;100.00;101522.28;5208392;28;20356;-69
2022/08/21 07:20:10;;;;;;;11.88;7.13;;;;;;;15.30;100.00;101516.66;5207899;28;20476;-69
2022/08/21 07:22:42;;;;;;;16.30;7.70;;;;;;;15.55;100.00;101522.63;5203667;28;20047;-69
2022/08/21 07:25:13;;;;;;;16.15;7.07;;;;;;;15.66;100.00;101518.00;5204626;28;20112;-69
2022/08/21 07:27:45;;;;;;;14.32;6.57;;;;;;;15.77;100.00;101514.41;5204059;28;20037;-69
2022/08/21 07:30:16;;;;;;;13.63;6.80;;;;;;;15.87;100.00;101519.84;5203080;28;20089;-69
2022/08/21 07:32:49;;;;;;;12.45;5.78;;;;;;;15.91;100.00;101515.03;5207347;28;20033;-69
2022/08/21 07:35:21;;;;;;;12.98;6.45;;;;;;;16.00;100.00;101516.94;5201735;28;20042;-69
2022/08/21 07:37:52;;;;;;;11.48;5.55;;;;;;;15.99;100.00;101520.59;5202047;28;20057;-69
2022/08/21 07:40:24;;;;;;;17.33;5.82;;;;;;;16.14;100.00;101521.91;5205369;28;20105;-69
2022/08/21 07:42:55;;;;;;;16.08;5.90;;;;;;;16.20;100.00;101516.00;5197573;28;20479;-69
2022/08/21 07:45:27;;;;;;;12.98;5.10;;;;;;;16.26;100.00;101515.44;5200413;28;20088;-68
2022/08/21 07:47:58;;;;;;;15.15;6.15;;;;;;;16.48;100.00;101523.44;5203371;28;20032;-68
2022/08/21 07:50:29;;;;;;;10.70;4.70;;;;;;;16.61;100.00;101519.47;5204454;28;20455;-69
2022/08/21 07:53:02;;;;;;;13.15;5.85;;;;;;;16.63;100.00;101524.72;5203102;28;20103;-69
2022/08/21 07:55:33;;;;;;;11.90;4.35;;;;;;;16.74;100.00;101515.63;5204521;28;20029;-69
2022/08/21 07:58:05;;;;;;;16.10;4.72;;;;;;;16.80;100.00;101515.09;5207514;28;20573;-69
2022/08/21 08:00:36;;;;;;;12.23;4.38;;;;;;;16.89;100.00;101521.50;5208058;28;20105;-69
2022/08/21 08:03:08;;;;;;;11.18;4.32;;;;;;;16.90;100.00;101517.81;5207852;28;20061;-69
2022/08/21 08:05:39;;;;;;;12.23;5.03;;;;;;;16.95;100.00;101515.53;5210787;28;20339;-69
2022/08/21 08:08:10;;;;;;;11.93;3.78;;;;;;;17.07;100.00;101510.81;5204461;28;20026;-69
2022/08/21 08:10:43;;;;;;;9.65;3.90;;;;;;;17.17;100.00;101512.53;5208789;28;20049;-67
2022/08/21 08:13:15;;;;;;;12.93;4.63;;;;;;;17.25;100.00;101509.09;5210286;28;20033;-70
2022/08/21 08:15:47;;;;;;;12.93;4.25;;;;;;;17.42;100.00;101512.91;5198391;28;20117;-68
2022/08/21 08:18:18;;;;;;;11.18;3.63;;;;;;;17.59;100.00;101517.53;5203541;28;20030;-70
2022/08/21 08:20:49;;;;;;;12.70;3.60;;;;;;;17.69;100.00;101509.41;5206326;28;20032;-70
2022/08/21 08:23:22;;;;;;;11.50;3.60;;;;;;;17.80;100.00;101511.94;5204572;28;20484;-70
2022/08/21 08:25:53;;;;;;;12.85;3.33;;;;;;;17.94;100.00;101513.31;5209414;28;20041;-69
2022/08/21 08:28:25;;;;;;;10.95;3.70;;;;;;;17.98;100.00;101513.88;5206393;28;20632;-70
2022/08/21 08:30:56;;;;;;;13.50;4.03;;;;;;;18.15;100.00;101515.78;5206628;28;20153;-68
2022/08/21 08:33:28;;;;;;;10.85;3.58;;;;;;;18.18;100.00;101514.63;5203785;28;20037;-69
2022/08/21 08:35:59;;;;;;;13.35;4.10;;;;;;;18.23;100.00;101515.00;5203967;28;20405;-69
2022/08/21 08:38:30;;;;;;;7.85;3.45;;;;;;;18.33;100.00;101515.81;5197657;28;20040;-68
2022/08/21 08:41:29;;;;;;;11.18;3.58;;;;;;;18.41;100.00;101507.81;5203104;28;20046;-69
2022/08/21 08:44:04;;;;;;;12.02;3.65;;;;;;;18.56;100.00;101508.13;5206320;28;20418;-68
2022/08/21 08:46:38;;;;;;;9.98;2.88;;;;;;;18.64;100.00;101498.38;5205443;28;20460;-68
2022/08/21 08:49:24;;;;;;;10.23;3.00;;;;;;;18.74;100.00;101509.97;5204733;28;20535;-68
2022/08/21 08:52:07;;;;;;;10.95;3.20;;;;;;;18.82;100.00;101501.97;5205777;28;20038;-68
2022/08/21 08:54:44;;;;;;;12.23;3.42;;;;;;;18.76;98.66;101500.69;5205764;28;20114;-69
2022/08/21 08:57:18;;;;;;;9.63;3.22;;;;;;;18.78;100.00;101492.44;5209303;28;20030;-69
2022/08/21 08:59:53;;;;;;;10.60;3.80;;;;;;;18.86;99.72;101492.53;5209133;28;20030;-69
2022/08/21 09:02:24;;;;;;;11.05;2.95;;;;;;;19.03;100.00;101487.28;5209925;28;20038;-69
2022/08/21 09:04:56;;;;;;;8.48;2.40;;;;;;;19.14;97.98;101476.22;5203733;28;20049;-68
2022/08/21 09:07:38;;;;;;;9.80;2.67;;;;;;;19.26;99.22;101476.78;5214221;28;20061;-69
2022/08/21 09:10:10;;;;;;;7.82;2.38;;;;;;;19.49;96.45;101477.09;5207432;28;20042;-69
2022/08/21 09:13:00;;;;;;;12.63;2.67;;;;;;;19.66;93.15;101475.34;5212377;28;20037;-69
2022/08/21 09:15:59;;;;;;;7.07;2.03;;;;;;;19.75;90.91;101480.66;5211249;28;20029;-71
2022/08/21 09:18:54;;;;;;;11.25;3.28;;;;;;;19.68;89.49;101476.88;5234738;28;20030;-69
2022/08/21 09:21:49;;;;;;;8.05;1.95;;;;;;;19.59;90.35;101481.38;5213110;28;20069;-68
2022/08/21 09:24:37;;;;;;;7.93;1.98;;;;;;;19.56;88.54;101472.75;5204525;28;20412;-68
2022/08/21 09:27:17;;;;;;;7.05;2.03;;;;;;;19.74;90.94;101481.66;5212971;28;20040;-68
2022/08/21 09:29:52;;;;;;;6.80;1.88;;;;;;;19.74;84.22;101486.22;5214461;28;20018;-69
2022/08/21 09:32:28;;;;;;;8.27;1.92;;;;;;;19.87;85.89;101477.66;5209327;28;20030;-68
2022/08/21 09:35:13;;;;;;;11.20;2.30;;;;;;;20.04;87.46;101487.53;5210081;28;20038;-68
2022/08/21 09:38:07;;;;;;;7.30;2.20;;;;;;;20.07;84.98;101475.53;5214128;28;20040;-68
2022/08/21 09:40:42;;;;;;;7.53;2.15;;;;;;;20.25;83.55;101486.22;5210657;28;20087;-68
2022/08/21 09:43:13;;;;;;;8.70;2.20;;;;;;;20.23;80.20;101480.13;5213494;28;20037;-67
2022/08/21 09:45:47;;;;;;;7.20;1.97;;;;;;;20.40;83.01;101484.56;5208676;28;20042;-69
2022/08/21 09:48:20;;;;;;;;;;;;;;;20.47;87.96;101488.31;5212819;28;20745;-69
2022/08/21 09:50:53;;;;;;;8.98;1.90;;;;;;;20.64;82.44;101493.81;5212672;28;20487;-68
2022/08/21 09:53:30;;;;;;;9.13;2.80;;;;;;;20.86;80.98;101479.56;5207239;28;20407;-68
2022/08/21 09:58:54;;;;;;;8.52;2.53;;;;;;;20.96;77.85;101479.41;5213024;28;20033;-69
2022/08/21 10:01:26;;;;;;;7.47;2.13;;;;;;;21.12;76.57;101473.97;5211732;28;20025;-68
2022/08/21 10:04:06;;;;;;;6.88;2.33;;;;;;;21.19;78.18;101474.13;5211985;28;20643;-68
2022/08/21 10:06:38;;;;;;;8.35;2.35;;;;;;;21.33;77.18;101472.59;5206749;28;20087;-67
2022/08/21 10:09:16;;;;;;;5.82;2.45;;;;;;;21.39;76.52;101476.47;5204626;28;20030;-68
2022/08/21 10:11:51;;;;;;;10.20;2.13;;;;;;;21.40;73.74;101468.16;5201806;28;20026;-68
2022/08/21 10:14:34;;;;;;;7.50;1.88;;;;;;;21.48;75.47;101473.59;5212629;28;20079;-68
2022/08/21 10:17:27;;;;;;;7.45;1.55;;;;;;;21.43;74.55;101473.22;5212229;28;20032;-68
2022/08/21 10:20:19;;;;;;;7.40;1.88;;;;;;;21.43;75.12;101480.53;5209979;28;20380;-68
2022/08/21 10:23:20;;;;;;;5.45;1.80;;;;;;;21.47;76.42;101487.34;5206615;28;20033;-68
2022/08/21 10:26:05;;;;;;;6.13;2.70;;;;;;;21.32;73.69;101481.72;5208322;28;20066;-67
2022/08/21 10:29:07;;;;;;;6.70;2.38;;;;;;;21.32;72.48;101468.16;5210783;28;20083;-68
2022/08/21 10:31:54;;;;;;;7.97;2.25;;;;;;;21.36;72.99;101464.06;5213771;28;20030;-68
2022/08/21 10:34:52;;;;;;;8.90;3.08;;;;;;;21.53;72.78;101471.22;5211348;28;20448;-70
2022/08/21 10:37:47;;;;;;;7.10;2.10;;;;;;;21.74;73.80;101475.19;5207714;28;20036;-68
2022/08/21 10:40:34;;;;;;;6.45;2.55;;;;;;;21.60;69.15;101468.63;5205996;28;20205;-68
2022/08/21 10:43:14;;;;;;;6.60;2.53;;;;;;;21.71;69.75;101468.25;5209778;28;20488;-68
2022/08/21 10:46:03;;;;;;;7.00;2.20;;;;;;;21.79;70.13;101469.25;5207703;28;20091;-67
2022/08/21 10:48:37;;;;;;;5.93;2.20;;;;;;;21.93;73.53;101474.78;5210135;28;20484;-68
2022/08/21 10:51:32;;;;;;;5.97;2.38;;;;;;;22.08;72.09;101474.88;5207947;28;20117;-68
2022/08/21 10:54:15;;;;;;;7.22;2.22;;;;;;;22.08;68.92;101474.88;5204777;28;20033;-68
2022/08/21 10:56:48;;;;;;;7.80;2.30;;;;;;;22.00;67.05;101474.09;5206714;28;20055;-67
2022/08/21 10:59:28;;;;;;;8.70;2.47;;;;;;;22.07;69.16;101465.03;5212907;28;20767;-67
2022/08/21 11:02:09;;;;;;;6.13;2.30;;;;;;;22.16;69.83;101462.28;5212355;28;20380;-68
2022/08/21 11:04:47;;;;;;;6.35;2.45;;;;;;;22.16;67.24;101470.44;5203255;28;20440;-68
2022/08/21 11:07:36;;;;;;;7.30;2.22;;;;;;;22.26;70.47;101468.34;5207559;28;20026;-68
2022/08/21 11:10:28;;;;;;;5.82;2.20;;;;;;;22.49;72.84;101463.81;5204645;28;20045;-68
2022/08/21 11:13:07;;;;;;;5.45;2.25;;;;;;;22.62;69.56;101467.78;5202487;28;20072;-68
2022/08/21 11:15:50;;;;;;;6.43;2.38;;;;;;;22.76;71.90;101466.97;5205321;28;20028;-69
2022/08/21 11:18:27;;;;;;;6.47;2.60;;;;;;;22.58;64.03;101466.44;5208356;28;20186;-68
2022/08/21 11:21:26;;;;;;;6.47;2.50;;;;;;;22.74;69.47;101460.88;5212772;28;20040;-69
2022/08/21 11:24:41;;;;;;;8.45;2.67;;;;;;;22.87;67.78;101463.81;5203336;28;20125;-68
2022/08/21 11:27:25;;;;;;;7.07;2.28;;;;;;;22.72;66.55;101457.47;5204777;28;20399;-68
2022/08/21 11:30:00;;;;;;;7.07;2.22;;;;;;;22.78;64.04;101458.63;5206344;28;20117;-67
2022/08/21 11:32:52;;;;;;;6.07;2.53;;;;;;;22.85;66.62;101449.53;5204230;28;20055;-69
2022/08/21 11:35:49;;;;;;;5.68;1.73;;;;;;;23.12;66.48;101435.56;5209641;28;20056;-68
2022/08/21 11:38:42;;;;;;;6.25;2.20;;;;;;;23.18;66.06;101441.09;5206527;28;20038;-68
2022/08/21 11:41:29;;;;;;;9.80;2.25;;;;;;;23.28;64.45;101441.69;5208659;28;20037;-69
2022/08/21 11:44:36;;;;;;;7.95;1.75;;;;;;;23.29;62.65;101448.81;5210173;28;20033;-69
2022/08/21 11:47:18;;;;;;;7.68;2.00;;;;;;;23.22;60.02;101445.16;5207068;28;20086;-69
2022/08/21 11:50:07;;;;;;;7.53;1.80;;;;;;;23.35;62.19;101452.66;5207277;28;20026;-68